Aviation Digital Data Service (ADDS)

Output produced by METARs form (1505 UTC 23 July 2016)
found at http://aviationweather.gov/adds/metars/
 
KJFK 231432Z 2315/2418 28016G24KT P6SM FEW060 
     FM232300 31012KT P6SM SKC 
     FM240200 32007KT P6SM SKC 
     FM241200 36007KT P6SM SKC 
     FM241700 18007KT P6SM SKC